createdAt,value
2017-11-29T07:59:59.601Z,30
2017-11-29T08:00:40.177Z,30
2017-11-29T08:01:20.734Z,30
2017-11-29T08:02:01.291Z,30
2017-11-29T08:02:41.856Z,30
2017-11-29T08:03:22.422Z,30
2017-11-29T08:04:03.077Z,30
2017-11-29T08:04:43.655Z,25
2017-11-29T08:05:24.213Z,25
2017-11-29T08:06:04.788Z,25
2017-11-29T08:06:45.338Z,25
2017-11-29T08:07:25.898Z,30
2017-11-29T08:08:06.508Z,30
2017-11-29T08:08:47.076Z,35
2017-11-29T08:09:27.741Z,45
2017-11-29T08:10:08.313Z,50
2017-11-29T08:10:48.903Z,50
2017-11-29T08:11:29.465Z,50
2017-11-29T08:12:10.086Z,50
2017-11-29T08:12:50.654Z,55
2017-11-29T08:13:31.269Z,55
2017-11-29T08:14:11.859Z,60
2017-11-29T08:14:52.421Z,60
2017-11-29T08:15:33.053Z,65
2017-11-29T08:16:13.605Z,70
2017-11-29T08:16:54.166Z,70
2017-11-29T08:17:34.737Z,70
2017-11-29T08:18:15.651Z,70
2017-11-29T08:18:56.233Z,70
2017-11-29T08:19:36.801Z,75
2017-11-29T08:20:17.358Z,75
2017-11-29T08:20:57.958Z,75
2017-11-29T08:21:38.534Z,70
2017-11-29T08:22:19.103Z,70
2017-11-29T08:22:59.675Z,70
2017-11-29T08:23:40.253Z,70
2017-11-29T08:24:20.824Z,70
2017-11-29T08:25:01.390Z,70
2017-11-29T08:25:41.986Z,70
2017-11-29T08:26:22.569Z,70
2017-11-29T08:27:03.123Z,70
2017-11-29T08:27:43.697Z,85
2017-11-29T08:28:24.271Z,105
2017-11-29T08:29:04.865Z,100
2017-11-29T08:29:45.442Z,80
2017-11-29T08:30:26.031Z,65
2017-11-29T08:31:06.615Z,65
2017-11-29T08:31:47.226Z,60
2017-11-29T08:32:27.817Z,65
2017-11-29T08:33:08.396Z,105
2017-11-29T08:33:48.987Z,155
2017-11-29T08:34:29.547Z,285
2017-11-29T08:35:10.193Z,340
2017-11-29T08:35:50.742Z,340
2017-11-29T08:36:31.339Z,320
2017-11-29T08:37:11.909Z,295
2017-11-29T08:37:52.496Z,285
2017-11-29T08:38:33.058Z,350
2017-11-29T08:39:13.625Z,325
2017-11-29T08:39:54.211Z,295
2017-11-29T08:40:34.807Z,345
2017-11-29T08:41:15.379Z,440
2017-11-29T08:41:55.989Z,465
2017-11-29T08:42:36.565Z,475
2017-11-29T08:43:17.142Z,540
2017-11-29T08:43:57.745Z,615
2017-11-29T08:44:38.318Z,650
2017-11-29T08:45:18.871Z,655
2017-11-29T08:45:59.425Z,630
2017-11-29T08:46:40.014Z,635
2017-11-29T08:47:20.582Z,675
2017-11-29T08:48:01.169Z,700
2017-11-29T08:48:41.801Z,710
2017-11-29T08:49:22.420Z,650
2017-11-29T08:50:03.020Z,515
2017-11-29T08:50:43.636Z,470
2017-11-29T08:51:24.287Z,455
2017-11-29T08:52:04.873Z,390
2017-11-29T08:52:45.439Z,360
2017-11-29T08:53:26.002Z,325
2017-11-29T08:54:06.743Z,295
2017-11-29T08:54:47.349Z,270
2017-11-29T08:55:27.950Z,320
2017-11-29T08:56:08.511Z,430
2017-11-29T08:56:49.087Z,525
2017-11-29T08:57:29.644Z,610
2017-11-29T08:58:10.215Z,670
2017-11-29T08:58:50.788Z,695
2017-11-29T08:59:31.349Z,690
2017-11-29T09:00:11.931Z,700
2017-11-29T09:00:52.519Z,685
2017-11-29T09:01:33.078Z,720
2017-11-29T09:02:13.635Z,760
2017-11-29T09:02:54.217Z,790
2017-11-29T09:03:34.845Z,770
2017-11-29T09:04:15.454Z,720
2017-11-29T09:04:56.021Z,700
2017-11-29T09:05:36.605Z,595
2017-11-29T09:06:17.178Z,495
2017-11-29T09:06:57.757Z,455
2017-11-29T09:07:38.327Z,445
2017-11-29T09:08:18.883Z,395
2017-11-29T09:08:59.469Z,365
2017-11-29T09:09:40.091Z,360
2017-11-29T09:10:20.666Z,370
2017-11-29T09:11:01.254Z,355
2017-11-29T09:11:41.868Z,370
2017-11-29T09:12:22.450Z,390
2017-11-29T09:13:03.024Z,375
2017-11-29T09:13:43.603Z,380
2017-11-29T09:14:24.199Z,420
2017-11-29T09:15:04.783Z,445
2017-11-29T09:15:45.363Z,435
2017-11-29T09:16:25.964Z,440
2017-11-29T09:17:06.553Z,490
2017-11-29T09:17:47.111Z,550
2017-11-29T09:18:27.694Z,595
2017-11-29T09:19:08.263Z,555
2017-11-29T09:19:48.842Z,510
2017-11-29T09:20:29.417Z,465
2017-11-29T09:21:09.969Z,425
2017-11-29T09:21:50.559Z,410
2017-11-29T09:22:31.128Z,450
2017-11-29T09:23:11.693Z,540
2017-11-29T09:23:52.300Z,595
2017-11-29T09:24:32.867Z,685
2017-11-29T09:25:13.469Z,735
2017-11-29T09:25:54.054Z,750
2017-11-29T09:26:34.626Z,760
2017-11-29T09:27:15.198Z,725
2017-11-29T09:27:55.766Z,660
2017-11-29T09:28:36.350Z,625
2017-11-29T09:29:16.942Z,575
2017-11-29T09:29:57.560Z,490
2017-11-29T09:30:38.159Z,470
2017-11-29T09:31:18.743Z,510
2017-11-29T09:31:59.338Z,595
2017-11-29T09:32:39.940Z,560
2017-11-29T09:33:20.501Z,480
2017-11-29T09:34:01.079Z,385
2017-11-29T09:34:41.683Z,380
2017-11-29T09:35:22.251Z,455
2017-11-29T09:36:02.850Z,505
2017-11-29T09:36:43.431Z,450
2017-11-29T09:37:24.023Z,410
2017-11-29T09:38:04.637Z,445
2017-11-29T09:38:45.218Z,445
2017-11-29T09:39:25.810Z,385
2017-11-29T09:40:06.390Z,370
2017-11-29T09:40:46.981Z,405
2017-11-29T09:41:27.568Z,450
2017-11-29T09:42:08.137Z,495
2017-11-29T09:42:48.707Z,505
2017-11-29T09:43:29.274Z,505
2017-11-29T09:44:09.851Z,460
2017-11-29T09:44:50.451Z,410
2017-11-29T09:45:31.026Z,365
2017-11-29T09:46:11.603Z,355
2017-11-29T09:46:52.179Z,325
2017-11-29T09:47:32.759Z,305
2017-11-29T09:48:13.330Z,255
2017-11-29T09:48:53.902Z,220
2017-11-29T09:49:34.464Z,200
2017-11-29T09:50:15.043Z,170
2017-11-29T09:50:55.620Z,155
2017-11-29T09:51:36.218Z,145
2017-11-29T09:52:16.822Z,140
2017-11-29T09:52:57.397Z,135
2017-11-29T09:53:37.973Z,130
2017-11-29T09:54:18.589Z,130
2017-11-29T09:54:59.171Z,130
2017-11-29T09:55:39.832Z,145
2017-11-29T09:56:20.420Z,150
2017-11-29T09:57:01.048Z,155
2017-11-29T09:57:41.643Z,155
2017-11-29T09:58:22.232Z,150
2017-11-29T09:59:02.809Z,150
2017-11-29T09:59:43.418Z,145
2017-11-29T10:00:23.985Z,135
2017-11-29T10:01:04.570Z,125
2017-11-29T10:01:45.137Z,120
2017-11-29T10:02:25.713Z,120
2017-11-29T10:03:06.282Z,125
2017-11-29T10:03:46.875Z,125
2017-11-29T10:04:27.476Z,125
2017-11-29T10:05:08.064Z,120
2017-11-29T10:05:48.665Z,115
2017-11-29T10:06:29.242Z,105
2017-11-29T10:07:09.823Z,100
2017-11-29T10:07:50.384Z,95
2017-11-29T10:08:30.977Z,85
2017-11-29T10:09:11.538Z,80
2017-11-29T10:09:52.117Z,80
2017-11-29T10:10:32.694Z,75
2017-11-29T10:11:13.277Z,70
2017-11-29T10:11:53.893Z,70
2017-11-29T10:12:34.470Z,70
2017-11-29T10:13:15.055Z,70
2017-11-29T10:13:55.618Z,70
2017-11-29T10:14:36.207Z,70
2017-11-29T10:15:16.790Z,70
2017-11-29T10:15:57.378Z,70
2017-11-29T10:16:37.973Z,70
2017-11-29T10:17:18.554Z,70
2017-11-29T10:17:59.154Z,70
2017-11-29T10:18:39.737Z,70
2017-11-29T10:19:20.325Z,70
2017-11-29T10:20:00.919Z,70
2017-11-29T10:20:41.489Z,70
2017-11-29T10:21:22.077Z,70
2017-11-29T10:22:02.684Z,70
2017-11-29T10:22:43.257Z,70
2017-11-29T10:23:23.836Z,65
2017-11-29T10:24:04.404Z,65
2017-11-29T10:24:44.983Z,65
2017-11-29T10:25:25.544Z,65
2017-11-29T10:26:06.120Z,65
2017-11-29T10:26:46.700Z,65
2017-11-29T10:27:27.286Z,65
2017-11-29T10:28:07.921Z,70
2017-11-29T10:28:48.462Z,70
2017-11-29T10:29:29.045Z,65
2017-11-29T10:30:09.640Z,65
2017-11-29T10:30:50.260Z,70
2017-11-29T10:31:30.847Z,70
2017-11-29T10:32:11.441Z,70
2017-11-29T10:32:52.017Z,65
2017-11-29T10:33:32.593Z,65
2017-11-29T10:34:13.170Z,65
2017-11-29T10:34:53.747Z,65
2017-11-29T10:35:34.325Z,65
2017-11-29T10:36:14.893Z,65
2017-11-29T10:36:55.492Z,65
2017-11-29T10:37:36.078Z,65
2017-11-29T10:38:16.683Z,65
2017-11-29T10:38:57.290Z,65
2017-11-29T10:39:37.864Z,65
2017-11-29T10:40:18.461Z,65
2017-11-29T10:40:59.064Z,65
2017-11-29T10:41:39.634Z,65
2017-11-29T10:42:20.216Z,65
2017-11-29T10:43:00.794Z,65
2017-11-29T10:43:41.355Z,65
2017-11-29T10:44:21.940Z,65
2017-11-29T10:45:02.493Z,65
2017-11-29T10:45:43.107Z,65
2017-11-29T10:46:23.701Z,65
2017-11-29T10:47:04.278Z,60
2017-11-29T10:47:44.857Z,60
2017-11-29T10:48:25.427Z,60
2017-11-29T10:49:06.008Z,60
2017-11-29T10:49:46.582Z,60
2017-11-29T10:50:27.144Z,60
2017-11-29T10:51:07.720Z,60
2017-11-29T10:51:48.311Z,60
2017-11-29T10:52:28.899Z,60
2017-11-29T10:53:09.463Z,60
2017-11-29T10:53:50.025Z,60
2017-11-29T10:54:30.589Z,60
2017-11-29T10:55:11.165Z,60
2017-11-29T10:55:51.788Z,60
2017-11-29T10:56:32.352Z,60
2017-11-29T10:57:12.914Z,60
2017-11-29T10:57:53.480Z,60
2017-11-29T10:58:34.060Z,60
2017-11-29T10:59:14.634Z,60
2017-11-29T10:59:55.209Z,60
2017-11-29T11:00:35.777Z,60
2017-11-29T11:01:16.383Z,60
2017-11-29T11:01:56.948Z,60
2017-11-29T11:02:37.610Z,60
2017-11-29T11:03:18.171Z,60
2017-11-29T11:03:58.749Z,60
2017-11-29T11:04:39.314Z,60
2017-11-29T11:05:19.894Z,60
2017-11-29T11:06:00.457Z,60
2017-11-29T11:06:41.033Z,60
2017-11-29T11:07:21.613Z,60
2017-11-29T11:08:02.191Z,60
2017-11-29T11:08:42.751Z,60
2017-11-29T11:09:23.330Z,60
2017-11-29T11:10:03.891Z,60
2017-11-29T11:10:44.456Z,60
2017-11-29T11:11:25.034Z,60
2017-11-29T11:12:05.606Z,65
2017-11-29T11:12:46.192Z,60
2017-11-29T11:13:26.802Z,60
2017-11-29T11:14:07.362Z,60
2017-11-29T11:14:47.982Z,60
2017-11-29T11:15:28.564Z,60
2017-11-29T11:16:09.172Z,60
2017-11-29T11:16:49.766Z,60
2017-11-29T11:17:30.340Z,60
2017-11-29T11:18:10.921Z,60
2017-11-29T11:18:51.506Z,60
2017-11-29T11:19:32.073Z,60
2017-11-29T11:20:12.684Z,60
2017-11-29T11:20:53.312Z,60
2017-11-29T11:21:33.868Z,60
2017-11-29T11:22:14.435Z,60
2017-11-29T11:22:55.012Z,60
2017-11-29T11:23:35.630Z,60
2017-11-29T11:24:16.206Z,60
2017-11-29T11:24:56.762Z,60
2017-11-29T11:25:37.362Z,60
2017-11-29T11:26:17.950Z,60
2017-11-29T11:26:58.559Z,60
2017-11-29T11:27:39.129Z,60
2017-11-29T11:28:19.713Z,60
2017-11-29T11:29:00.313Z,60
2017-11-29T11:29:40.926Z,60
2017-11-29T11:30:21.470Z,60
2017-11-29T11:31:02.043Z,60
2017-11-29T11:31:42.679Z,60
2017-11-29T11:32:23.241Z,60
2017-11-29T11:33:03.820Z,60
2017-11-29T11:33:44.364Z,60
2017-11-29T11:34:24.926Z,60
2017-11-29T11:35:05.497Z,60
2017-11-29T11:35:46.061Z,60
2017-11-29T11:36:26.665Z,60
2017-11-29T11:37:07.239Z,55
2017-11-29T11:37:47.813Z,55
2017-11-29T11:38:28.452Z,60
2017-11-29T11:39:09.041Z,60
2017-11-29T11:39:49.640Z,65
2017-11-29T11:40:30.218Z,65
2017-11-29T11:41:10.794Z,65
2017-11-29T11:41:51.376Z,65
2017-11-29T11:42:31.942Z,65
2017-11-29T11:43:12.529Z,65
2017-11-29T11:43:53.137Z,65
2017-11-29T11:44:33.701Z,65
2017-11-29T11:45:14.278Z,65
2017-11-29T11:45:54.862Z,65
2017-11-29T11:46:35.474Z,65
2017-11-29T11:47:16.046Z,65
2017-11-29T11:47:56.636Z,65
2017-11-29T11:48:37.252Z,65
2017-11-29T11:49:17.860Z,65
2017-11-29T11:49:58.449Z,65
2017-11-29T11:50:39.060Z,65
2017-11-29T11:51:19.635Z,65
2017-11-29T11:52:00.205Z,65
2017-11-29T11:52:40.799Z,65
2017-11-29T11:53:21.415Z,65
2017-11-29T11:54:02.011Z,65
2017-11-29T11:54:42.618Z,65
2017-11-29T11:55:23.213Z,65
2017-11-29T11:56:03.813Z,65
2017-11-29T11:56:44.415Z,65
2017-11-29T11:57:25.032Z,65
2017-11-29T11:58:06.527Z,65
2017-11-29T11:58:47.141Z,65
2017-11-29T11:59:27.757Z,65
2017-11-29T12:00:08.321Z,60
2017-11-29T12:00:48.890Z,60
2017-11-29T12:01:29.469Z,60
2017-11-29T12:02:10.085Z,60
2017-11-29T12:02:50.658Z,60
2017-11-29T12:03:31.225Z,60
2017-11-29T12:04:11.798Z,55
2017-11-29T12:04:52.384Z,55
2017-11-29T12:05:33.060Z,60
2017-11-29T12:06:13.667Z,60
2017-11-29T12:06:54.254Z,65
2017-11-29T12:07:34.825Z,65
2017-11-29T12:08:15.405Z,65
2017-11-29T12:08:55.985Z,65
2017-11-29T12:09:36.582Z,65
2017-11-29T12:10:17.155Z,65
2017-11-29T12:10:57.720Z,65
2017-11-29T12:11:38.289Z,65
2017-11-29T12:12:19.078Z,60
2017-11-29T12:12:59.860Z,60
2017-11-29T12:13:40.500Z,60
2017-11-29T12:14:21.198Z,60
2017-11-29T12:15:01.768Z,60
2017-11-29T12:15:42.360Z,60
2017-11-29T12:16:23.404Z,60
2017-11-29T12:17:04.716Z,60
2017-11-29T12:17:45.322Z,60
2017-11-29T12:18:25.930Z,60
2017-11-29T12:19:06.506Z,60
2017-11-29T12:19:47.100Z,60
2017-11-29T12:20:27.702Z,60
2017-11-29T12:21:08.252Z,60
2017-11-29T12:21:48.857Z,60
2017-11-29T12:22:29.400Z,60
2017-11-29T12:23:09.966Z,60
2017-11-29T12:23:50.519Z,60
2017-11-29T12:24:31.137Z,60
2017-11-29T12:25:11.754Z,60
2017-11-29T12:25:52.471Z,60
2017-11-29T12:26:33.103Z,55
2017-11-29T12:27:13.676Z,60
2017-11-29T12:27:54.299Z,60
2017-11-29T12:28:34.866Z,60
2017-11-29T12:29:15.684Z,55
2017-11-29T12:29:56.265Z,55
2017-11-29T12:30:36.875Z,55
2017-11-29T12:31:17.443Z,55
2017-11-29T12:31:58.018Z,55
2017-11-29T12:32:38.594Z,55
2017-11-29T12:33:19.188Z,55
2017-11-29T12:33:59.829Z,55
2017-11-29T12:34:40.409Z,55
2017-11-29T12:35:21.013Z,55
2017-11-29T12:36:01.621Z,55
2017-11-29T12:36:42.209Z,55
2017-11-29T12:37:22.789Z,55
2017-11-29T12:38:03.372Z,55
2017-11-29T12:38:43.942Z,55
2017-11-29T12:39:24.517Z,50
2017-11-29T12:40:05.091Z,50
2017-11-29T12:40:45.651Z,45
2017-11-29T12:41:26.234Z,45
2017-11-29T12:42:06.818Z,45
2017-11-29T12:42:47.396Z,45
2017-11-29T12:43:27.969Z,50
2017-11-29T12:44:08.556Z,50
2017-11-29T12:44:49.122Z,50
2017-11-29T12:45:29.702Z,50
2017-11-29T12:46:10.273Z,50
2017-11-29T12:46:50.862Z,45
2017-11-29T12:47:31.435Z,50
2017-11-29T12:48:12.018Z,50
2017-11-29T12:48:52.590Z,45
2017-11-29T12:49:33.176Z,45
2017-11-29T12:50:13.774Z,45
2017-11-29T12:50:54.348Z,45
2017-11-29T12:51:34.912Z,50
2017-11-29T12:52:15.512Z,50
2017-11-29T12:52:56.096Z,50
2017-11-29T12:53:36.690Z,50
2017-11-29T12:54:17.308Z,50
2017-11-29T12:54:57.876Z,50
2017-11-29T12:55:38.448Z,50
2017-11-29T12:56:19.024Z,50
2017-11-29T12:56:59.582Z,50
2017-11-29T12:57:40.186Z,50
2017-11-29T12:58:20.817Z,50
2017-11-29T12:59:01.400Z,50
2017-11-29T12:59:41.995Z,50
2017-11-29T13:00:22.586Z,50
2017-11-29T13:01:03.157Z,50
2017-11-29T13:01:43.757Z,50
2017-11-29T13:02:24.355Z,50
2017-11-29T13:03:04.987Z,50
2017-11-29T13:03:45.626Z,50
2017-11-29T13:04:26.244Z,50
2017-11-29T13:05:06.826Z,50
2017-11-29T13:05:47.399Z,50
2017-11-29T13:06:27.973Z,50
2017-11-29T13:07:08.570Z,50
2017-11-29T13:07:49.139Z,50
2017-11-29T13:08:29.727Z,50
2017-11-29T13:09:10.345Z,50
2017-11-29T13:09:50.912Z,50
2017-11-29T13:10:31.494Z,50
2017-11-29T13:11:12.097Z,50
2017-11-29T13:11:52.714Z,50
2017-11-29T13:12:33.315Z,50
2017-11-29T13:13:13.929Z,50
2017-11-29T13:13:54.500Z,50
2017-11-29T13:14:35.638Z,50
2017-11-29T13:15:16.201Z,50
2017-11-29T13:15:56.774Z,50
2017-11-29T13:16:37.413Z,50
2017-11-29T13:17:17.999Z,50
2017-11-29T13:17:58.571Z,50
2017-11-29T13:18:39.141Z,50
2017-11-29T13:19:20.176Z,50
2017-11-29T13:20:01.304Z,45
2017-11-29T13:20:41.874Z,45
2017-11-29T13:21:22.453Z,45
2017-11-29T13:22:03.030Z,45
2017-11-29T13:22:43.645Z,50
2017-11-29T13:23:24.212Z,50
2017-11-29T13:24:04.772Z,60
2017-11-29T13:24:45.586Z,75
2017-11-29T13:25:26.143Z,110
2017-11-29T13:26:06.714Z,135
2017-11-29T13:26:47.287Z,140
2017-11-29T13:27:27.901Z,110
2017-11-29T13:28:08.469Z,75
2017-11-29T13:28:49.034Z,45
2017-11-29T13:29:29.622Z,45
2017-11-29T13:30:10.163Z,45
2017-11-29T13:30:50.750Z,45
2017-11-29T13:31:31.481Z,45
2017-11-29T13:32:12.057Z,50
2017-11-29T13:32:52.651Z,60
2017-11-29T13:33:33.237Z,75
2017-11-29T13:34:13.888Z,85
2017-11-29T13:34:54.480Z,75
2017-11-29T13:35:35.047Z,50
2017-11-29T13:36:15.617Z,40
2017-11-29T13:36:56.200Z,40
2017-11-29T13:37:36.777Z,40
2017-11-29T13:38:17.499Z,40
2017-11-29T13:38:58.131Z,40
2017-11-29T13:39:38.708Z,40
2017-11-29T13:40:19.268Z,35
2017-11-29T13:40:59.839Z,35
2017-11-29T13:41:40.444Z,35
2017-11-29T13:42:21.009Z,35
2017-11-29T13:43:01.590Z,35
2017-11-29T13:43:42.194Z,35
2017-11-29T13:44:22.758Z,35
2017-11-29T13:45:03.341Z,35
2017-11-29T13:45:43.912Z,35
2017-11-29T13:46:24.472Z,35
2017-11-29T13:47:05.065Z,30
2017-11-29T13:47:45.666Z,30
2017-11-29T13:48:26.225Z,30
2017-11-29T13:49:06.804Z,30
2017-11-29T13:49:47.397Z,30
2017-11-29T13:50:28.004Z,30
2017-11-29T13:51:08.558Z,25
2017-11-29T13:51:49.122Z,25
2017-11-29T13:52:29.691Z,25
2017-11-29T13:53:10.257Z,25
2017-11-29T13:53:50.840Z,25
2017-11-29T13:54:31.422Z,20
2017-11-29T13:55:11.997Z,20
2017-11-29T13:55:52.759Z,20
2017-11-29T13:56:33.343Z,20
2017-11-29T13:57:13.903Z,20
2017-11-29T13:57:54.461Z,20
2017-11-29T13:58:35.045Z,20
2017-11-29T13:59:15.613Z,20
2017-11-29T13:59:56.183Z,20
2017-11-29T14:00:36.758Z,20
2017-11-29T14:01:17.339Z,20
2017-11-29T14:01:57.934Z,20
2017-11-29T14:02:38.544Z,20
2017-11-29T14:03:19.142Z,20
2017-11-29T14:03:59.713Z,20
2017-11-29T14:04:40.267Z,20
2017-11-29T14:05:20.846Z,20
2017-11-29T14:06:01.423Z,20
2017-11-29T14:06:42.011Z,20
2017-11-29T14:07:22.570Z,20
2017-11-29T14:08:03.163Z,15
2017-11-29T14:08:43.726Z,15
2017-11-29T14:09:24.283Z,15
2017-11-29T14:10:04.901Z,15
2017-11-29T14:10:45.480Z,15
2017-11-29T14:11:26.032Z,15
2017-11-29T14:12:06.609Z,15
2017-11-29T14:12:47.177Z,15
2017-11-29T14:13:27.743Z,15
2017-11-29T14:14:08.322Z,15
2017-11-29T14:14:48.881Z,15
2017-11-29T14:15:29.451Z,15
2017-11-29T14:16:10.024Z,15
2017-11-29T14:16:50.634Z,15
2017-11-29T14:17:31.183Z,15
2017-11-29T14:18:11.745Z,15
2017-11-29T14:18:52.347Z,15
2017-11-29T14:19:32.893Z,15
2017-11-29T14:20:13.459Z,15
2017-11-29T14:20:54.035Z,15
2017-11-29T14:21:34.628Z,15
2017-11-29T14:22:15.197Z,15
2017-11-29T14:22:55.763Z,10
2017-11-29T14:23:36.316Z,10
2017-11-29T14:24:16.890Z,10
2017-11-29T14:24:58.332Z,10
2017-11-29T14:25:38.878Z,10
2017-11-29T14:26:19.482Z,10
2017-11-29T14:27:00.068Z,10
2017-11-29T14:27:40.639Z,10
2017-11-29T14:28:21.277Z,10
2017-11-29T14:29:01.841Z,10
2017-11-29T14:29:42.404Z,10
2017-11-29T14:30:22.975Z,10
2017-11-29T14:31:03.551Z,10
2017-11-29T14:31:44.139Z,10
2017-11-29T14:32:24.696Z,10
2017-11-29T14:33:05.261Z,10
2017-11-29T14:33:45.831Z,10
2017-11-29T14:34:26.433Z,5
2017-11-29T14:35:07.027Z,5
2017-11-29T14:35:47.634Z,5
2017-11-29T14:36:28.173Z,5
2017-11-29T14:37:08.753Z,5
2017-11-29T14:37:49.315Z,5
2017-11-29T14:38:29.910Z,5
2017-11-29T14:39:10.452Z,5
2017-11-29T14:39:51.049Z,5
2017-11-29T14:40:31.644Z,5
2017-11-29T14:41:12.251Z,5
2017-11-29T14:41:52.826Z,5
2017-11-29T14:42:33.404Z,5
2017-11-29T14:43:13.984Z,5
2017-11-29T14:43:54.569Z,5
2017-11-29T14:44:35.183Z,5
2017-11-29T14:45:15.767Z,5
2017-11-29T14:45:56.323Z,5
2017-11-29T14:46:36.936Z,5
2017-11-29T14:47:17.501Z,5
2017-11-29T14:47:58.075Z,5
2017-11-29T14:48:38.643Z,5
2017-11-29T14:49:19.202Z,5
2017-11-29T14:49:59.836Z,0
2017-11-29T14:50:40.327Z,0
2017-11-29T14:51:20.912Z,0
2017-11-29T14:52:01.466Z,0
2017-11-29T14:52:42.030Z,0
2017-11-29T14:53:22.614Z,0
2017-11-29T14:54:03.207Z,0
2017-11-29T14:54:43.789Z,0
2017-11-29T14:55:24.368Z,0
2017-11-29T14:56:04.947Z,0
2017-11-29T14:56:45.552Z,0
2017-11-29T14:57:26.168Z,0
2017-11-29T14:58:06.747Z,0
2017-11-29T14:58:47.320Z,0
2017-11-29T14:59:27.892Z,0
2017-11-29T15:00:08.459Z,0
2017-11-29T15:00:49.023Z,0
2017-11-29T15:01:29.601Z,0
2017-11-29T15:02:10.168Z,0
2017-11-29T15:02:50.741Z,0
2017-11-29T15:03:31.317Z,0
2017-11-29T15:04:11.889Z,0
2017-11-29T15:04:52.471Z,0
2017-11-29T15:05:33.029Z,0
2017-11-29T15:06:13.639Z,0
2017-11-29T15:06:54.219Z,0
2017-11-29T15:07:34.795Z,0
2017-11-29T15:08:15.459Z,0
2017-11-29T15:08:56.038Z,0
2017-11-29T15:09:36.610Z,0
2017-11-29T15:10:17.232Z,0
2017-11-29T15:10:57.795Z,0
2017-11-29T15:11:38.367Z,0
2017-11-29T15:12:18.963Z,0
2017-11-29T15:12:59.578Z,0
2017-11-29T15:13:40.171Z,0
2017-11-29T15:14:20.740Z,0
2017-11-29T15:15:01.335Z,0
2017-11-29T15:15:41.893Z,0
2017-11-29T15:16:22.459Z,0
2017-11-29T15:17:03.062Z,0
2017-11-29T15:17:43.703Z,0
2017-11-29T15:18:24.259Z,0
2017-11-29T15:19:04.824Z,0
2017-11-29T15:19:45.447Z,0
2017-11-29T15:20:26.070Z,0
2017-11-29T15:21:06.701Z,0
2017-11-29T15:21:47.253Z,0
2017-11-29T15:22:27.811Z,0
2017-11-29T15:23:08.370Z,0
2017-11-29T15:23:48.931Z,0
2017-11-29T15:24:29.503Z,0
2017-11-29T15:25:10.059Z,0
2017-11-29T15:25:50.693Z,0
2017-11-29T15:26:31.312Z,0
2017-11-29T15:27:11.910Z,0
2017-11-29T15:27:52.470Z,0
2017-11-29T15:28:33.047Z,0
2017-11-29T15:29:13.648Z,0
2017-11-29T15:29:54.228Z,0
2017-11-29T15:30:34.857Z,0
2017-11-29T15:31:15.447Z,0
2017-11-29T15:31:56.061Z,0
2017-11-29T15:32:36.699Z,0
2017-11-29T15:33:17.339Z,0
2017-11-29T15:33:57.916Z,0
2017-11-29T15:34:38.481Z,0
2017-11-29T15:35:19.047Z,0
2017-11-29T15:35:59.616Z,0
2017-11-29T15:36:40.189Z,0
2017-11-29T15:37:20.765Z,0
2017-11-29T15:38:01.355Z,0
2017-11-29T15:38:41.919Z,0
2017-11-29T15:39:22.479Z,0
2017-11-29T15:40:03.051Z,0
2017-11-29T15:40:43.614Z,0
2017-11-29T15:41:24.233Z,0
2017-11-29T15:42:04.823Z,0
2017-11-29T15:42:45.381Z,0
2017-11-29T15:43:25.975Z,0
2017-11-29T15:44:06.982Z,0
2017-11-29T15:44:47.998Z,0
2017-11-29T15:45:28.795Z,0
2017-11-29T15:46:09.356Z,0
2017-11-29T15:46:50.206Z,0
2017-11-29T15:47:31.544Z,0
2017-11-29T15:48:12.522Z,0
2017-11-29T15:48:53.228Z,0
2017-11-29T15:49:33.789Z,0
2017-11-29T15:50:14.374Z,0
2017-11-29T15:50:54.954Z,0
2017-11-29T15:51:35.520Z,0
2017-11-29T15:52:16.087Z,0
2017-11-29T15:52:56.677Z,0
2017-11-29T15:53:37.262Z,0
2017-11-29T15:54:17.825Z,0
2017-11-29T15:54:58.390Z,0
2017-11-29T15:55:38.960Z,0
2017-11-29T15:56:19.557Z,0
2017-11-29T15:57:00.127Z,0
2017-11-29T15:57:40.697Z,0
2017-11-29T15:58:21.245Z,0
2017-11-29T15:59:01.848Z,0
2017-11-29T15:59:42.408Z,0
2017-11-29T16:00:23.030Z,0
2017-11-29T16:01:03.619Z,0
2017-11-29T16:01:44.195Z,0
2017-11-29T16:02:24.750Z,0
2017-11-29T16:03:05.336Z,0
2017-11-29T16:03:45.893Z,0
2017-11-29T16:04:26.462Z,0
2017-11-29T16:05:07.051Z,0
2017-11-29T16:05:47.639Z,0
2017-11-29T16:06:28.205Z,0
2017-11-29T16:07:08.774Z,0
2017-11-29T16:07:49.460Z,0
2017-11-29T16:08:30.017Z,0
2017-11-29T16:09:10.585Z,0
2017-11-29T16:09:51.151Z,0
2017-11-29T16:10:31.717Z,0
2017-11-29T16:11:12.302Z,0
2017-11-29T16:11:52.938Z,0
2017-11-29T16:12:33.526Z,0
2017-11-29T16:13:14.095Z,0
2017-11-29T16:13:54.692Z,0
2017-11-29T16:14:35.262Z,0
2017-11-29T16:15:15.818Z,0
2017-11-29T16:15:56.383Z,0
2017-11-29T16:16:36.959Z,0
2017-11-29T16:17:17.521Z,0
2017-11-29T16:17:58.096Z,0
2017-11-29T16:18:38.669Z,0
2017-11-29T16:19:19.237Z,0
2017-11-29T16:19:59.797Z,0
2017-11-29T16:20:40.357Z,0
2017-11-29T16:21:20.920Z,0
2017-11-29T16:22:01.488Z,0
2017-11-29T16:22:42.051Z,0
2017-11-29T16:23:22.630Z,0
2017-11-29T16:24:03.207Z,0
2017-11-29T16:24:43.765Z,0
2017-11-29T16:25:24.332Z,0
2017-11-29T16:26:04.888Z,0
2017-11-29T16:26:45.461Z,0
2017-11-29T16:27:26.033Z,0
2017-11-29T16:28:06.598Z,0
2017-11-29T16:28:47.178Z,0
2017-11-29T16:29:27.722Z,0
2017-11-29T16:30:10.434Z,0
2017-11-29T16:30:52.198Z,0
2017-11-29T16:31:32.763Z,0
2017-11-29T16:32:13.341Z,0
2017-11-29T16:32:53.903Z,0
2017-11-29T16:33:34.464Z,0
2017-11-29T16:34:15.037Z,0
2017-11-29T16:34:55.604Z,0
2017-11-29T16:35:36.186Z,0
2017-11-29T16:36:16.776Z,0
2017-11-29T16:36:57.331Z,0
2017-11-29T16:37:37.887Z,0
2017-11-29T16:38:18.470Z,0
2017-11-29T16:38:59.032Z,0
2017-11-29T16:39:39.589Z,0
2017-11-29T16:40:20.341Z,0
2017-11-29T16:41:00.903Z,0
2017-11-29T16:41:41.506Z,0
2017-11-29T16:42:22.044Z,0
2017-11-29T16:43:02.627Z,0
2017-11-29T16:43:43.208Z,0
2017-11-29T16:44:23.778Z,0
2017-11-29T16:45:04.355Z,0
2017-11-29T16:45:44.902Z,0
2017-11-29T16:46:25.478Z,0
2017-11-29T16:47:06.072Z,0
2017-11-29T16:47:46.635Z,0
2017-11-29T16:48:27.200Z,0
2017-11-29T16:49:07.761Z,0
2017-11-29T16:49:48.323Z,0
2017-11-29T16:50:28.898Z,0
2017-11-29T16:51:09.459Z,0
2017-11-29T16:51:50.020Z,0
2017-11-29T16:52:30.616Z,0
2017-11-29T16:53:11.188Z,0
2017-11-29T16:53:51.734Z,0
2017-11-29T16:54:32.289Z,0
2017-11-29T16:55:12.855Z,0
2017-11-29T16:55:53.428Z,0
2017-11-29T16:56:34.000Z,0
2017-11-29T16:57:14.566Z,0
2017-11-29T16:57:55.143Z,0
2017-11-29T16:58:35.724Z,0
2017-11-29T16:59:16.294Z,0
2017-11-29T16:59:56.854Z,0
2017-11-29T17:00:37.420Z,0
2017-11-29T17:01:17.990Z,0
2017-11-29T17:01:58.552Z,0
2017-11-29T17:02:39.124Z,0
2017-11-29T17:03:19.675Z,0
2017-11-29T17:04:00.230Z,0
2017-11-29T17:04:40.832Z,0
2017-11-29T17:05:21.393Z,0
2017-11-29T17:06:01.957Z,0
2017-11-29T17:06:42.530Z,0
2017-11-29T17:07:23.090Z,0
2017-11-29T17:08:03.647Z,0
2017-11-29T17:08:44.204Z,0
2017-11-29T17:09:24.807Z,0
2017-11-29T17:10:05.381Z,0
2017-11-29T17:10:45.953Z,0
2017-11-29T17:11:26.551Z,0
2017-11-29T17:12:07.131Z,0
2017-11-29T17:12:47.689Z,0
2017-11-29T17:13:28.391Z,0
2017-11-29T17:14:08.945Z,0
2017-11-29T17:14:49.546Z,0
2017-11-29T17:15:30.100Z,0
2017-11-29T17:16:10.668Z,0
2017-11-29T17:16:51.242Z,0
2017-11-29T17:17:31.868Z,0
2017-11-29T17:18:12.450Z,0
2017-11-29T17:18:53.015Z,0
2017-11-29T17:19:33.571Z,0
2017-11-29T17:20:14.131Z,0
2017-11-29T17:20:54.689Z,0
2017-11-29T17:21:35.260Z,0
2017-11-29T17:22:15.813Z,0
2017-11-29T17:22:56.394Z,0
2017-11-29T17:23:36.949Z,0
2017-11-29T17:24:17.518Z,0
2017-11-29T17:24:58.075Z,0
2017-11-29T17:25:38.631Z,0
2017-11-29T17:26:19.195Z,0
2017-11-29T17:26:59.761Z,0
2017-11-29T17:27:40.332Z,0
2017-11-29T17:28:20.915Z,0
2017-11-29T17:29:01.469Z,0
2017-11-29T17:29:42.051Z,0
2017-11-29T17:30:22.615Z,0
2017-11-29T17:31:03.171Z,0
2017-11-29T17:31:43.733Z,0
2017-11-29T17:32:24.310Z,0
2017-11-29T17:33:04.866Z,0
2017-11-29T17:33:45.448Z,0
2017-11-29T17:34:26.002Z,0
2017-11-29T17:35:06.561Z,0
2017-11-29T17:35:47.151Z,0
2017-11-29T17:36:27.699Z,0
2017-11-29T17:37:08.260Z,0
2017-11-29T17:37:48.837Z,0
2017-11-29T17:38:29.404Z,0
2017-11-29T17:39:09.971Z,0
2017-11-29T17:39:50.559Z,0
2017-11-29T17:40:31.165Z,0
2017-11-29T17:41:11.731Z,0
2017-11-29T17:41:52.339Z,0